Time;durP1;ratioP1;P1;durP2;ratioP2;P2;SDS_P1;SDS_P2;PMS_P1;PMS_P2;Temp;Humidity;BMP_temperature;BMP_pressure;BME280_temperature;BME280_humidity;BME280_pressure;Samples;Min_cycle;Max_cycle;Signal;HPM_P1;HPM_P2
2022/08/13 00:01:18;;;;;;;;;9.00;9.00;;;;;27.33;27.37;100630.84;5098756;27;45340;-60
2022/08/13 00:03:45;;;;;;;;;9.75;9.25;;;;;27.32;27.00;100632.72;5081086;27;45377;-60
2022/08/13 00:06:11;;;;;;;;;9.00;9.00;;;;;27.30;27.61;100634.81;5099172;27;45461;-60
2022/08/13 00:08:39;;;;;;;;;11.25;10.50;;;;;27.28;27.44;100631.44;5064315;27;46286;-60
2022/08/13 00:11:06;;;;;;;;;9.00;9.00;;;;;27.26;26.47;100630.78;5099907;27;45998;-61
2022/08/13 00:13:33;;;;;;;;;10.00;10.00;;;;;27.24;27.38;100634.75;5099860;27;45258;-60
2022/08/13 00:15:59;;;;;;;;;9.25;8.00;;;;;27.24;27.53;100634.75;5080649;27;45639;-61
2022/08/13 00:18:26;;;;;;;;;6.50;6.25;;;;;27.25;27.04;100631.00;5083350;27;45349;-61
2022/08/13 00:20:57;;;;;;;;;11.00;9.25;;;;;27.15;26.63;100634.03;5078268;28;45327;-60
2022/08/13 00:23:26;;;;;;;;;6.00;6.00;;;;;27.21;27.10;100632.41;5077494;28;45254;-61
2022/08/13 00:25:56;;;;;;;;;9.00;9.00;;;;;27.19;26.49;100627.13;5078263;27;45396;-60
2022/08/13 00:28:28;;;;;;;;;8.50;8.50;;;;;27.17;26.83;100633.84;5078211;28;45478;-60
2022/08/13 00:30:55;;;;;;;;;9.50;9.00;;;;;27.15;26.97;100636.75;5079853;28;45476;-61
2022/08/13 00:33:22;;;;;;;;;10.00;10.00;;;;;27.15;27.13;100646.84;5079573;27;45302;-60
2022/08/13 00:35:50;;;;;;;;;9.00;9.00;;;;;27.13;26.71;100643.44;5079267;27;45545;-61
2022/08/13 00:38:22;;;;;;;;;9.50;9.50;;;;;27.10;27.94;100641.13;5079004;28;45425;-60
2022/08/13 00:40:53;;;;;;;;;10.75;7.75;;;;;27.06;26.92;100634.31;5077267;28;45407;-64
2022/08/13 00:43:19;;;;;;;;;7.50;7.00;;;;;26.97;27.36;100628.97;5078299;28;45311;-61
2022/08/13 00:45:45;;;;;;;;;13.25;9.25;;;;;26.97;27.26;100639.88;5078088;27;45430;-60
2022/08/13 00:50:59;;;;;;;;;12.50;10.75;;;;;26.90;27.46;100638.09;5077894;28;45381;-61
2022/08/13 00:53:25;;;;;;;;;7.50;7.50;;;;;26.88;27.40;100641.03;5076394;28;45780;-59
2022/08/13 00:55:55;;;;;;;;;11.25;9.75;;;;;26.85;27.93;100640.56;5077628;28;45573;-61
2022/08/13 00:58:22;;;;;;;;;9.75;8.50;;;;;26.76;27.87;100631.63;5077228;28;45422;-61
2022/08/13 01:00:56;;;;;;;;;13.00;13.00;;;;;26.71;28.33;100634.94;5077636;27;45362;-60
2022/08/13 01:03:22;;;;;;;;;11.50;10.50;;;;;26.63;29.10;100640.50;5060264;28;45399;-61
2022/08/13 01:05:49;;;;;;;;;12.50;10.75;;;;;26.54;29.41;100638.88;5077585;28;45856;-61
2022/08/13 01:08:17;;;;;;;;;14.50;12.00;;;;;26.43;29.20;100637.50;5077306;27;46013;-61
2022/08/13 01:10:44;;;;;;;;;13.50;9.00;;;;;26.39;29.10;100638.88;5077420;28;45406;-61
2022/08/13 01:13:11;;;;;;;;;10.00;10.00;;;;;26.36;29.54;100646.59;5077959;27;45376;-61
2022/08/13 01:15:42;;;;;;;;;12.50;10.50;;;;;26.25;29.57;100645.16;5078040;28;45204;-61
2022/08/13 01:18:13;;;;;;;;;5.50;5.50;;;;;26.21;29.41;100643.84;5090428;27;47066;-61
2022/08/13 01:20:45;;;;;;;;;10.50;10.50;;;;;26.22;29.84;100653.72;5080231;27;45734;-61
2022/08/13 01:23:11;;;;;;;;;11.75;11.25;;;;;26.19;29.89;100647.78;5097987;27;45255;-61
2022/08/13 01:25:37;;;;;;;;;10.25;10.00;;;;;26.18;30.09;100649.66;5098374;27;45234;-61
2022/08/13 01:28:03;;;;;;;;;12.25;12.00;;;;;26.09;30.19;100648.88;5097550;27;45939;-61
2022/08/13 01:30:32;;;;;;;;;17.75;14.75;;;;;26.03;30.31;100627.81;5079092;27;45166;-61
2022/08/13 01:32:58;;;;;;;;;11.50;10.25;;;;;25.99;30.41;100634.69;5097578;27;45475;-61
2022/08/13 01:35:26;;;;;;;;;12.00;12.00;;;;;25.99;30.31;100640.13;5098328;27;45456;-61
2022/08/13 01:37:54;;;;;;;;;12.50;12.50;;;;;25.91;30.82;100642.06;5097660;27;45386;-61
2022/08/13 01:40:20;;;;;;;;;12.33;12.33;;;;;25.77;30.84;100641.00;5097383;27;45220;-60
2022/08/13 01:42:48;;;;;;;;;12.33;12.33;;;;;25.69;31.18;100652.00;5097649;27;45312;-61
2022/08/13 01:45:14;;;;;;;;;13.50;11.00;;;;;25.62;30.71;100649.09;5097429;27;45480;-61
2022/08/13 01:50:29;;;;;;;;;13.00;9.00;;;;;25.48;31.44;100647.16;5096782;27;45337;-61
2022/08/13 01:53:24;;;;;;;;;11.00;11.00;;;;;25.38;31.04;100649.28;5097115;27;45212;-62
2022/08/13 01:55:53;;;;;;;;;8.33;8.00;;;;;25.34;31.59;100651.50;5074591;27;45600;-61
2022/08/13 01:58:22;;;;;;;;;13.25;10.00;;;;;25.25;31.51;100641.69;5096657;27;46496;-61
2022/08/13 02:00:51;;;;;;;;;10.67;8.33;;;;;25.20;31.28;100644.13;5097297;27;45350;-61
2022/08/13 02:03:19;;;;;;;;;9.50;9.50;;;;;25.20;31.58;100644.13;5098920;27;45339;-64
2022/08/13 02:05:47;;;;;;;;;9.25;9.25;;;;;25.11;31.45;100648.75;5097826;27;45415;-61
2022/08/13 02:08:14;;;;;;;;;11.33;11.33;;;;;25.14;31.66;100656.59;5096757;27;45309;-61
2022/08/13 02:10:44;;;;;;;;;10.67;8.00;;;;;25.08;31.71;100649.13;5095842;27;45277;-61
2022/08/13 02:13:14;;;;;;;;;6.50;6.50;;;;;25.04;31.53;100655.97;5097035;27;45515;-60
2022/08/13 02:15:42;;;;;;;;;8.33;8.00;;;;;25.01;31.71;100655.47;5097604;27;45349;-63
2022/08/13 02:18:16;;;;;;;;;9.00;7.75;;;;;24.98;32.00;100653.91;5084555;27;46551;-62
2022/08/13 02:20:44;;;;;;;;;8.00;8.00;;;;;24.98;31.79;100656.63;5076571;28;45757;-60
2022/08/13 02:23:09;;;;;;;;;10.67;10.67;;;;;24.96;31.78;100653.22;5076702;28;45347;-61
2022/08/13 02:25:36;;;;;;;;;8.00;8.00;;;;;24.84;31.67;100638.31;5076587;28;45461;-59
2022/08/13 02:28:02;;;;;;;;;11.33;10.33;;;;;24.94;32.17;100655.28;5075082;28;45459;-60
2022/08/13 02:30:29;;;;;;;;;9.67;9.67;;;;;24.91;32.19;100650.22;5076253;28;45265;-61
2022/08/13 02:32:56;;;;;;;;;10.33;10.33;;;;;24.88;31.82;100651.41;5076220;28;45240;-61
2022/08/13 02:35:23;;;;;;;;;8.75;8.00;;;;;24.80;32.13;100642.44;5057780;28;45465;-61
2022/08/13 02:37:51;;;;;;;;;8.33;7.33;;;;;24.80;32.16;100659.59;5075755;28;45530;-60
2022/08/13 02:43:02;;;;;;;;;9.00;9.00;;;;;24.74;32.15;100648.56;5076125;28;45766;-62
2022/08/13 02:45:28;;;;;;;;;9.33;9.33;;;;;24.73;32.14;100646.88;5076139;27;45331;-61
2022/08/13 02:47:54;;;;;;;;;9.00;8.33;;;;;24.65;31.96;100648.63;5076046;28;46417;-62
2022/08/13 02:50:21;;;;;;;;;8.33;8.00;;;;;24.66;32.26;100658.47;5075765;28;45359;-61
2022/08/13 02:52:51;;;;;;;;;9.50;8.00;;;;;24.64;31.93;100655.09;5075755;28;45437;-60
2022/08/13 02:55:22;;;;;;;;;8.50;8.25;;;;;24.66;31.90;100657.63;5075947;28;45345;-61
2022/08/13 02:57:48;;;;;;;;;8.25;7.75;;;;;24.64;32.16;100660.53;5075350;28;45392;-62
2022/08/13 03:00:15;;;;;;;;;6.00;6.00;;;;;24.60;31.82;100659.16;5076345;28;45350;-62
2022/08/13 03:02:45;;;;;;;;;9.67;9.33;;;;;24.56;32.31;100657.81;5076287;28;45327;-58
2022/08/13 03:05:17;;;;;;;;;9.67;9.67;;;;;24.58;32.11;100661.22;5076150;28;45411;-60
2022/08/13 03:07:46;;;;;;;;;10.33;9.00;;;;;24.57;32.31;100653.22;5076042;28;45480;-61
2022/08/13 03:10:14;;;;;;;;;8.33;8.00;;;;;24.47;32.59;100636.25;5079080;28;45334;-61
2022/08/13 03:12:42;;;;;;;;;7.00;6.33;;;;;24.40;32.33;100647.00;5079803;28;45963;-61
2022/08/13 03:15:13;;;;;;;;;8.33;7.00;;;;;24.41;32.18;100654.13;5079384;28;45186;-60
2022/08/13 03:17:40;;;;;;;;;7.00;7.00;;;;;24.42;31.97;100653.97;5074277;27;48151;-59
2022/08/13 03:20:09;;;;;;;;;5.33;5.00;;;;;24.37;32.10;100650.06;5099326;27;45949;-61
2022/08/13 03:22:55;;;;;;;;;7.67;7.67;;;;;24.38;31.72;100662.66;5081634;27;45280;-61
2022/08/13 03:25:24;;;;;;;;;8.67;8.33;;;;;24.37;32.57;100653.66;5100013;27;45424;-60
2022/08/13 03:27:50;;;;;;;;;7.75;6.50;;;;;24.36;31.99;100651.94;5099456;27;45361;-60
2022/08/13 03:30:17;;;;;;;;;10.67;10.00;;;;;24.30;31.90;100636.31;5099968;27;45509;-60
2022/08/13 03:32:45;;;;;;;;;9.00;4.33;;;;;24.36;32.31;100653.81;5099525;27;45250;-60
2022/08/13 03:35:14;;;;;;;;;5.33;5.33;;;;;24.35;32.53;100650.25;5099784;27;45492;-59
2022/08/13 03:37:41;;;;;;;;;8.00;8.00;;;;;24.26;32.41;100647.69;5099361;27;46250;-61
2022/08/13 03:40:07;;;;;;;;;9.00;7.00;;;;;24.23;32.52;100640.75;5099307;27;45398;-61
2022/08/13 03:42:34;;;;;;;;;8.00;6.00;;;;;24.22;32.80;100644.47;5099578;27;45366;-60
2022/08/13 03:45:01;;;;;;;;;7.67;7.67;;;;;24.13;32.80;100646.34;5099303;27;45286;-60
2022/08/13 03:47:26;;;;;;;;;8.67;8.67;;;;;24.13;32.63;100649.06;5097809;27;47067;-59
2022/08/13 03:49:51;;;;;;;;;8.00;6.67;;;;;24.09;32.72;100645.00;5098943;27;45453;-62
2022/08/13 03:52:17;;;;;;;;;4.00;4.00;;;;;24.04;32.62;100647.38;5099569;27;45317;-61
2022/08/13 03:54:42;;;;;;;;;7.00;7.00;;;;;24.02;32.73;100657.56;5100157;27;45383;-61
2022/08/13 03:57:08;;;;;;;;;11.00;9.00;;;;;24.01;32.72;100644.16;5099675;27;46514;-60
2022/08/13 03:59:34;;;;;;;;;8.33;8.33;;;;;23.97;32.77;100643.66;5099338;27;45275;-60
2022/08/13 04:02:02;;;;;;;;;7.00;7.00;;;;;24.00;33.13;100645.19;5100278;27;45220;-60
2022/08/13 04:04:28;;;;;;;;;9.33;9.33;;;;;23.93;32.89;100646.88;5100959;27;45246;-63
2022/08/13 04:06:54;;;;;;;;;7.00;7.00;;;;;23.94;33.11;100654.00;5099721;27;46284;-61
2022/08/13 04:09:19;;;;;;;;;9.00;9.00;;;;;23.92;33.09;100648.75;5099024;27;45370;-63
2022/08/13 04:11:46;;;;;;;;;8.00;8.00;;;;;23.89;33.22;100654.53;5097906;27;45728;-61
2022/08/13 04:14:12;;;;;;;;;6.67;6.67;;;;;23.80;33.41;100641.97;5098777;27;45578;-61
2022/08/13 04:16:39;;;;;;;;;11.00;8.33;;;;;23.78;33.11;100641.28;5098698;27;46652;-63
2022/08/13 04:19:06;;;;;;;;;10.33;8.67;;;;;23.80;33.61;100653.66;5078114;28;45402;-61
2022/08/13 04:21:33;;;;;;;;;11.67;8.67;;;;;23.78;33.14;100647.56;5078903;27;45265;-63
2022/08/13 04:24:02;;;;;;;;;8.33;8.33;;;;;23.76;33.74;100648.75;5078618;27;45916;-60
2022/08/13 04:26:29;;;;;;;;;9.33;8.33;;;;;23.75;33.22;100652.50;5093842;27;46197;-61
2022/08/13 04:28:55;;;;;;;;;13.00;8.67;;;;;23.75;33.71;100650.63;5077807;28;45540;-60
2022/08/13 04:31:20;;;;;;;;;8.00;8.00;;;;;23.74;33.28;100650.81;5076976;28;45422;-61
2022/08/13 04:33:46;;;;;;;;;10.33;9.00;;;;;23.76;33.19;100646.03;5078789;27;45695;-62
2022/08/13 04:36:11;;;;;;;;;4.00;4.00;;;;;23.70;33.30;100642.16;5078010;27;46142;-61
2022/08/13 04:38:37;;;;;;;;;10.00;8.00;;;;;23.71;33.59;100652.00;5077827;27;45262;-61
2022/08/13 04:41:04;;;;;;;;;9.00;8.00;;;;;23.68;33.67;100643.31;5078106;27;45242;-60
2022/08/13 04:43:29;;;;;;;;;9.67;8.00;;;;;23.73;33.80;100649.09;5078174;27;45584;-60
2022/08/13 04:46:00;;;;;;;;;9.00;8.00;;;;;23.72;34.50;100645.53;5077785;27;45638;-61
2022/08/13 04:48:33;;;;;;;;;8.00;8.00;;;;;23.70;33.46;100650.31;5077999;27;45565;-61
2022/08/13 04:50:59;;;;;;;;;8.00;7.00;;;;;23.66;33.81;100634.50;5078198;27;45480;-61
2022/08/13 04:53:30;;;;;;;;;8.00;8.00;;;;;23.72;33.47;100647.41;5078142;27;45324;-61
2022/08/13 04:55:58;;;;;;;;;9.00;8.00;;;;;23.68;33.68;100640.59;5077708;27;46189;-62
2022/08/13 04:58:26;;;;;;;;;9.67;8.00;;;;;23.65;33.83;100640.94;5077734;27;45460;-61
2022/08/13 05:00:52;;;;;;;;;9.00;7.00;;;;;23.68;34.16;100646.03;5077807;27;45384;-60
2022/08/13 05:03:20;;;;;;;;;7.33;7.33;;;;;23.67;34.00;100649.78;5078326;28;45298;-59
2022/08/13 05:05:48;;;;;;;;;8.67;8.67;;;;;23.64;33.92;100640.09;5077815;27;46551;-61
2022/08/13 05:08:15;;;;;;;;;11.33;8.00;;;;;23.68;33.82;100652.31;5077219;27;45443;-60
2022/08/13 05:10:41;;;;;;;;;3.00;3.00;;;;;23.66;34.11;100653.50;5077854;27;45613;-61
2022/08/13 05:13:24;;;;;;;;;8.67;7.67;;;;;23.62;33.97;100646.72;5077847;27;45238;-61
2022/08/13 05:15:50;;;;;;;;;9.00;9.00;;;;;23.63;34.04;100656.56;5077765;27;46677;-61
2022/08/13 05:18:16;;;;;;;;;13.67;9.67;;;;;23.67;34.08;100661.47;5091461;27;45444;-65
2022/08/13 05:20:42;;;;;;;;;13.33;9.67;;;;;23.67;33.76;100660.63;5098306;27;45406;-61
2022/08/13 05:23:12;;;;;;;;;8.67;8.33;;;;;23.67;34.20;100666.06;5098187;27;45320;-59
2022/08/13 05:25:37;;;;;;;;;11.00;8.00;;;;;23.65;33.81;100657.25;5097328;27;46301;-60
2022/08/13 05:28:03;;;;;;;;;8.33;7.00;;;;;23.67;33.82;100657.91;5097751;27;45453;-62
2022/08/13 05:30:29;;;;;;;;;7.00;7.00;;;;;23.63;33.81;100653.84;5078583;27;45513;-60
2022/08/13 05:32:57;;;;;;;;;8.00;8.00;;;;;23.69;33.72;100661.31;5097634;27;45390;-61
2022/08/13 05:35:25;;;;;;;;;7.00;7.00;;;;;23.70;33.89;100665.72;5097602;27;45472;-61
2022/08/13 05:37:51;;;;;;;;;7.33;7.33;;;;;23.60;34.31;100646.91;5097811;27;45258;-60
2022/08/13 05:40:17;;;;;;;;;8.00;7.00;;;;;23.69;33.55;100654.00;5098053;27;45438;-60
2022/08/13 05:42:43;;;;;;;;;8.67;8.67;;;;;23.70;33.95;100660.28;5098839;27;45590;-62
2022/08/13 05:45:08;;;;;;;;;8.00;8.00;;;;;23.67;34.02;100650.63;5098641;27;45844;-62
2022/08/13 05:47:37;;;;;;;;;9.33;6.67;;;;;23.70;34.14;100665.72;5095772;27;45428;-62
2022/08/13 05:50:08;;;;;;;;;6.00;6.00;;;;;23.71;33.69;100667.44;5097504;27;45341;-60
2022/08/13 05:52:34;;;;;;;;;7.00;6.00;;;;;23.72;33.63;100674.56;5097700;27;45835;-59
2022/08/13 05:54:59;;;;;;;;;7.67;6.00;;;;;23.71;33.87;100673.72;5097232;27;46209;-61
2022/08/13 05:57:25;;;;;;;;;7.00;6.00;;;;;23.73;33.81;100668.13;5097208;27;45376;-60
2022/08/13 06:05:18;;;;;;;;;6.00;6.00;;;;;23.74;33.84;100665.22;5096890;27;45320;-61
2022/08/13 06:07:44;;;;;;;;;7.33;7.33;;;;;23.74;33.50;100669.81;5096891;27;45417;-61
2022/08/13 06:10:09;;;;;;;;;10.00;9.00;;;;;23.76;33.33;100670.47;5097293;27;45701;-61
2022/08/13 06:12:36;;;;;;;;;6.00;6.00;;;;;23.72;33.74;100664.56;5097283;27;45580;-60
2022/08/13 06:15:02;;;;;;;;;6.33;6.33;;;;;23.76;33.69;100668.63;5097019;27;47082;-61
2022/08/13 06:17:29;;;;;;;;;6.00;6.00;;;;;23.79;33.59;100673.69;5089778;27;45287;-60
2022/08/13 06:20:04;;;;;;;;;7.67;7.67;;;;;23.84;33.71;100673.22;5076867;27;45354;-62
2022/08/13 06:22:34;;;;;;;;;8.00;7.00;;;;;23.84;33.55;100670.50;5076676;28;45584;-60
2022/08/13 06:25:02;;;;;;;;;7.00;5.00;;;;;23.86;33.94;100670.31;5076161;28;45454;-62
2022/08/13 06:27:28;;;;;;;;;9.00;7.50;;;;;23.79;33.42;100651.97;5057936;28;45331;-61
2022/08/13 06:29:57;;;;;;;;;8.00;8.00;;;;;23.90;33.98;100671.66;5058587;28;45377;-61
2022/08/13 06:32:24;;;;;;;;;6.00;6.00;;;;;23.94;34.02;100671.16;5076818;28;45478;-60
2022/08/13 06:34:50;;;;;;;;;6.33;6.33;;;;;23.95;33.57;100669.28;5075960;27;46073;-61
2022/08/13 06:37:16;;;;;;;;;6.33;6.33;;;;;24.02;33.85;100673.88;5076261;28;45781;-61
2022/08/13 06:39:44;;;;;;;;;7.00;7.00;;;;;24.05;33.58;100670.81;5076170;28;45393;-62
2022/08/13 06:42:10;;;;;;;;;7.00;7.00;;;;;24.07;33.85;100676.06;5076079;28;45542;-60
2022/08/13 06:44:40;;;;;;;;;9.00;7.00;;;;;24.10;34.21;100667.59;5076331;28;46333;-62
2022/08/13 06:47:06;;;;;;;;;7.00;7.00;;;;;24.12;33.93;100671.84;5076370;28;45315;-61
2022/08/13 06:49:33;;;;;;;;;9.67;7.67;;;;;24.16;33.98;100671.47;5077000;28;45303;-62
2022/08/13 06:52:00;;;;;;;;;8.00;7.00;;;;;24.22;33.99;100671.66;5075297;28;45422;-61
2022/08/13 06:54:26;;;;;;;;;9.33;7.33;;;;;24.27;33.53;100671.97;5076106;27;46114;-62
2022/08/13 06:56:53;;;;;;;;;10.67;7.67;;;;;24.28;33.35;100672.81;5075951;27;45412;-62
2022/08/13 06:59:25;;;;;;;;;6.67;6.67;;;;;24.29;33.70;100671.78;5076113;28;45922;-61
2022/08/13 07:01:57;;;;;;;;;8.00;8.00;;;;;24.32;33.46;100671.47;5076455;28;45443;-61
2022/08/13 07:04:23;;;;;;;;;5.67;5.67;;;;;24.37;33.76;100679.97;5075922;28;45329;-61
2022/08/13 07:06:51;;;;;;;;;8.67;8.67;;;;;24.34;33.72;100670.28;5074457;28;46311;-61
2022/08/13 07:09:18;;;;;;;;;6.67;6.67;;;;;24.39;33.42;100678.78;5075891;27;45492;-62
2022/08/13 07:11:45;;;;;;;;;9.67;8.00;;;;;24.45;33.49;100676.38;5076181;28;45347;-61
2022/08/13 07:14:13;;;;;;;;;7.33;7.33;;;;;24.46;33.31;100680.78;5075812;28;46173;-60
2022/08/13 07:16:40;;;;;;;;;7.00;7.00;;;;;24.53;34.14;100679.09;5057657;27;45391;-61
2022/08/13 07:19:06;;;;;;;;;10.00;9.00;;;;;24.57;33.71;100683.13;5095290;27;45355;-63
2022/08/13 07:21:32;;;;;;;;;9.00;9.00;;;;;24.60;33.56;100685.50;5097055;27;45355;-61
2022/08/13 07:24:02;;;;;;;;;7.33;7.00;;;;;24.67;33.42;100689.22;5096106;27;46872;-62
2022/08/13 07:26:29;;;;;;;;;6.50;6.50;;;;;24.72;33.32;100684.09;5096514;27;45223;-61
2022/08/13 07:28:55;;;;;;;;;5.00;5.00;;;;;24.71;33.07;100675.09;5096543;27;45464;-60
2022/08/13 07:31:27;;;;;;;;;9.00;7.00;;;;;24.76;33.12;100674.59;5078131;27;45356;-63
2022/08/13 07:33:55;;;;;;;;;10.00;7.33;;;;;24.76;33.07;100668.31;5060842;27;47775;-62
2022/08/13 07:36:24;;;;;;;;;11.00;8.00;;;;;24.90;33.14;100675.72;5077931;27;45930;-61
2022/08/13 07:38:50;;;;;;;;;6.67;6.67;;;;;24.97;33.04;100684.84;5096849;27;45377;-60
2022/08/13 07:41:15;;;;;;;;;6.00;6.00;;;;;24.94;32.88;100682.50;5078772;27;45338;-61
2022/08/13 07:43:43;;;;;;;;;4.75;4.75;;;;;25.05;32.53;100694.91;5097090;27;45909;-61
2022/08/13 07:46:15;;;;;;;;;9.25;5.25;;;;;25.10;32.78;100692.47;5096367;27;45267;-62
2022/08/13 07:48:43;;;;;;;;;7.00;7.00;;;;;25.15;33.03;100690.94;5095465;27;45425;-61
2022/08/13 07:51:19;;;;;;;;;7.00;5.00;;;;;25.20;32.49;100691.25;5078082;27;45421;-61
2022/08/13 07:53:49;;;;;;;;;5.50;5.50;;;;;25.26;32.74;100686.94;5095825;27;46262;-61
2022/08/13 07:56:28;;;;;;;;;5.25;5.25;;;;;25.31;32.58;100680.97;5080792;27;45508;-62
2022/08/13 07:58:57;;;;;;;;;6.00;5.75;;;;;25.39;32.65;100687.22;5099186;27;45213;-61
2022/08/13 08:01:26;;;;;;;;;4.75;3.00;;;;;25.41;32.22;100685.19;5099353;27;45500;-61
2022/08/13 08:03:54;;;;;;;;;6.50;5.25;;;;;25.51;32.27;100684.91;5098741;27;45382;-61
2022/08/13 08:06:21;;;;;;;;;6.00;6.00;;;;;25.56;32.16;100682.53;5098901;27;45341;-61
2022/08/13 08:08:49;;;;;;;;;5.50;5.50;;;;;25.61;32.06;100688.25;5099673;27;45357;-61
2022/08/13 08:12:32;;;;;;;;;7.00;6.75;;;;;25.53;32.02;100672.00;5100077;27;45408;-60
2022/08/13 08:14:01;;;;;;;;;7.00;7.00;;;;;25.71;32.11;100691.63;5099400;27;46339;-60
2022/08/13 08:16:29;;;;;;;;;5.00;5.00;;;;;25.72;31.95;100678.84;5080929;27;45271;-62
2022/08/13 08:18:55;;;;;;;;;5.00;5.00;;;;;25.82;31.90;100693.94;5079343;27;45418;-61
2022/08/13 08:21:23;;;;;;;;;4.75;4.75;;;;;25.84;32.14;100680.97;5078391;28;45263;-60
2022/08/13 08:23:50;;;;;;;;;5.75;5.75;;;;;25.93;32.51;100689.09;5077894;28;46559;-61
2022/08/13 08:26:17;;;;;;;;;6.00;6.00;;;;;25.96;31.85;100684.09;5059572;28;45484;-61
2022/08/13 08:28:45;;;;;;;;;8.00;8.00;;;;;26.05;32.35;100690.34;5078115;28;45310;-64
2022/08/13 08:31:11;;;;;;;;;5.00;5.00;;;;;26.10;31.62;100682.44;5078307;27;45228;-61
2022/08/13 08:33:41;;;;;;;;;3.75;3.00;;;;;26.31;31.42;100687.19;5076479;28;45478;-61
2022/08/13 08:36:07;;;;;;;;;4.25;4.25;;;;;26.71;31.46;100686.78;5077831;28;45349;-61
2022/08/13 08:44:11;;;;;;;;;4.00;4.00;;;;;28.67;28.07;100691.97;5078019;28;45447;-62
2022/08/13 08:46:37;;;;;;;;;3.00;3.00;;;;;29.26;27.89;100692.25;5077920;28;45347;-62
2022/08/13 08:49:06;;;;;;;;;4.80;4.80;;;;;29.83;26.79;100682.72;5078033;28;45252;-63
2022/08/13 08:51:33;;;;;;;;;6.00;6.00;;;;;30.36;25.55;100693.72;5078522;27;45546;-61
2022/08/13 08:53:59;;;;;;;;;4.00;4.00;;;;;30.76;25.41;100693.66;5077986;28;46163;-63
2022/08/13 08:56:25;;;;;;;;;4.40;4.40;;;;;31.21;25.34;100685.50;5077901;28;45292;-62
2022/08/13 08:58:54;;;;;;;;;6.00;5.00;;;;;31.62;24.47;100690.53;5077435;28;45485;-62
2022/08/13 09:01:24;;;;;;;;;4.80;4.80;;;;;31.97;22.62;100680.78;5076562;28;45619;-62
2022/08/13 09:03:51;;;;;;;;;6.00;6.00;;;;;32.36;23.24;100686.19;5077257;28;46411;-63
2022/08/13 09:06:18;;;;;;;;;5.00;4.80;;;;;32.68;23.62;100686.91;5076393;28;45445;-61
2022/08/13 09:08:46;;;;;;;;;4.40;4.40;;;;;33.00;21.84;100684.88;5077676;27;45284;-62
2022/08/13 09:11:14;;;;;;;;;4.40;4.40;;;;;33.27;21.62;100686.22;5077695;28;45633;-61
2022/08/13 09:13:42;;;;;;;;;4.00;4.00;;;;;33.56;22.11;100678.22;5076495;28;45517;-62
2022/08/13 09:16:07;;;;;;;;;5.00;5.00;;;;;33.72;21.09;100681.13;5077260;28;45342;-63
2022/08/13 09:18:33;;;;;;;;;4.25;4.25;;;;;33.84;21.28;100677.56;5093311;27;45827;-62
2022/08/13 09:21:00;;;;;;;;;3.20;3.20;;;;;34.03;21.27;100673.66;5097972;27;45305;-62
2022/08/13 09:23:26;;;;;;;;;4.00;3.00;;;;;34.30;21.10;100665.75;5097545;27;45298;-63
2022/08/13 09:25:51;;;;;;;;;5.00;5.00;;;;;34.60;21.55;100669.25;5097681;27;45296;-63
2022/08/13 09:28:23;;;;;;;;;4.25;4.25;;;;;34.96;20.94;100672.81;5097845;27;45529;-63
2022/08/13 09:30:51;;;;;;;;;3.00;3.00;;;;;35.23;20.55;100673.06;5097943;27;45525;-63
2022/08/13 09:33:19;;;;;;;;;4.00;4.00;;;;;35.34;19.58;100674.13;5097461;27;46584;-63
2022/08/13 09:35:46;;;;;;;;;6.20;3.20;;;;;35.38;20.04;100669.78;5097449;27;45391;-62
2022/08/13 09:38:11;;;;;;;;;3.80;3.80;;;;;35.59;19.67;100677.41;5097750;27;45396;-65
2022/08/13 09:40:48;;;;;;;;;4.00;4.00;;;;;35.71;20.11;100678.16;5098079;27;45612;-64
2022/08/13 09:43:19;;;;;;;;;5.20;5.20;;;;;35.95;20.27;100681.66;5097307;27;47292;-64
2022/08/13 09:45:45;;;;;;;;;3.80;3.80;;;;;36.11;18.37;100677.22;5097517;27;45398;-64
2022/08/13 09:48:10;;;;;;;;;3.00;3.00;;;;;36.14;18.21;100660.09;5097477;27;45476;-63
2022/08/13 09:50:36;;;;;;;;;6.50;2.75;;;;;36.38;18.89;100673.78;5097987;27;45496;-63
2022/08/13 09:53:03;;;;;;;;;3.00;3.00;;;;;36.54;19.04;100673.72;5097397;27;45341;-64
2022/08/13 09:55:29;;;;;;;;;3.80;3.80;;;;;36.81;18.50;100678.56;5097276;27;45377;-62
2022/08/13 09:58:00;;;;;;;;;3.75;3.75;;;;;36.80;17.60;100666.59;5096076;27;45418;-64
2022/08/13 10:00:28;;;;;;;;;2.80;2.80;;;;;36.89;18.44;100676.19;5079246;27;45347;-63
2022/08/13 10:02:59;;;;;;;;;3.60;3.60;;;;;36.98;18.05;100665.44;5097071;27;45876;-63
2022/08/13 10:05:26;;;;;;;;;2.80;2.80;;;;;36.94;17.40;100672.63;5096902;27;45451;-62
2022/08/13 10:07:53;;;;;;;;;2.60;2.60;;;;;36.88;18.39;100665.34;5097117;27;45941;-63
2022/08/13 10:10:19;;;;;;;;;3.40;3.40;;;;;36.76;18.00;100654.38;5097089;27;45629;-64
2022/08/13 10:12:44;;;;;;;;;3.00;3.00;;;;;36.61;18.03;100655.00;5096744;27;45347;-63
2022/08/13 10:15:12;;;;;;;;;4.00;4.00;;;;;36.29;17.87;100660.31;5095203;27;45425;-63
2022/08/13 10:17:50;;;;;;;;;2.80;2.80;;;;;36.05;18.94;100661.59;5088097;27;45358;-63
2022/08/13 10:20:25;;;;;;;;;5.20;5.20;;;;;35.79;18.96;100642.84;5076543;28;45330;-63
2022/08/13 10:22:54;;;;;;;;;5.60;5.00;;;;;35.43;18.59;100628.44;5076020;28;45448;-64
2022/08/13 10:25:20;;;;;;;;;4.40;4.40;;;;;35.27;18.47;100652.13;5076216;28;45492;-62
2022/08/13 10:27:48;;;;;;;;;3.80;3.80;;;;;34.78;19.06;100651.69;5076352;28;45364;-64
2022/08/13 10:30:15;;;;;;;;;6.20;3.80;;;;;34.39;19.66;100656.06;5076536;28;45656;-63
2022/08/13 10:32:40;;;;;;;;;3.00;3.00;;;;;34.11;19.84;100656.75;5076039;28;45393;-64
2022/08/13 10:35:06;;;;;;;;;3.75;3.75;;;;;33.84;19.84;100653.56;5075975;28;45419;-62
2022/08/13 10:37:34;;;;;;;;;4.80;4.00;;;;;33.57;20.16;100642.13;5076157;28;45331;-62
2022/08/13 10:39:59;;;;;;;;;1.20;1.20;;;;;33.38;21.11;100655.13;5076611;28;45364;-62
2022/08/13 10:42:25;;;;;;;;;5.75;5.00;;;;;33.18;20.88;100640.75;5076712;28;45933;-62
2022/08/13 10:44:52;;;;;;;;;4.00;4.00;;;;;33.00;20.06;100643.56;5076352;27;45449;-64
2022/08/13 10:47:24;;;;;;;;;4.60;4.60;;;;;32.84;20.09;100643.13;5076132;28;45599;-65
2022/08/13 10:49:51;;;;;;;;;5.40;5.40;;;;;32.66;20.56;100643.09;5074865;28;45619;-64
2022/08/13 10:52:17;;;;;;;;;3.80;3.80;;;;;32.52;21.35;100628.63;5075796;27;45415;-63
2022/08/13 10:54:45;;;;;;;;;3.00;3.00;;;;;32.49;21.41;100636.50;5057971;28;45418;-62
2022/08/13 10:57:12;;;;;;;;;5.00;5.00;;;;;32.41;20.66;100645.91;5076198;27;45477;-62
2022/08/13 10:59:38;;;;;;;;;5.00;5.00;;;;;32.33;20.79;100623.34;5076665;28;45383;-64
2022/08/13 11:02:06;;;;;;;;;4.00;4.00;;;;;32.20;20.69;100619.63;5075950;28;46405;-62
2022/08/13 11:04:34;;;;;;;;;4.20;3.00;;;;;32.21;20.77;100632.31;5074575;28;45299;-63
2022/08/13 11:07:00;;;;;;;;;5.60;5.60;;;;;32.16;21.49;100623.88;5075751;28;45301;-63
2022/08/13 11:09:26;;;;;;;;;3.00;3.00;;;;;32.16;21.71;100618.38;5076387;28;45506;-62
2022/08/13 11:11:55;;;;;;;;;7.00;4.00;;;;;32.18;21.57;100632.78;5057329;28;46571;-62
2022/08/13 11:14:22;;;;;;;;;4.40;4.40;;;;;32.15;21.21;100641.47;5075801;28;45303;-62
2022/08/13 11:19:14;;;;;;;;;5.50;4.00;;;;;32.15;21.05;100635.13;5096405;27;45466;-62
2022/08/13 11:21:44;;;;;;;;;3.40;2.20;;;;;32.05;20.73;100626.56;5096640;27;45355;-64
2022/08/13 11:24:11;;;;;;;;;5.00;5.00;;;;;32.09;20.02;100625.88;5096645;27;45233;-63
2022/08/13 11:26:36;;;;;;;;;3.40;3.00;;;;;32.09;20.19;100616.78;5096675;27;45863;-62
2022/08/13 11:29:03;;;;;;;;;6.00;6.00;;;;;32.10;19.29;100616.56;5078164;27;45617;-65
2022/08/13 11:31:28;;;;;;;;;7.80;5.40;;;;;32.17;20.94;100620.09;5099315;27;47393;-63
2022/08/13 11:33:54;;;;;;;;;3.25;3.00;;;;;32.23;20.05;100610.91;5099452;27;45425;-62
2022/08/13 11:36:19;;;;;;;;;3.00;3.00;;;;;32.28;19.42;100613.84;5099747;27;45460;-62
2022/08/13 11:38:45;;;;;;;;;3.00;3.00;;;;;32.24;20.15;100600.75;5099846;27;45637;-63
2022/08/13 11:41:10;;;;;;;;;2.25;2.25;;;;;32.34;19.26;100608.53;5099982;27;46087;-62
2022/08/13 11:43:36;;;;;;;;;4.00;4.00;;;;;32.35;20.00;100602.78;5099201;27;45428;-62
2022/08/13 11:46:01;;;;;;;;;11.75;10.00;;;;;32.43;20.07;100598.91;5081049;27;45731;-63